Aviation Digital Data Service (ADDS)

Output produced by METARs form (1946 UTC 13 November 2019)
found at http://www.aviationweather.gov/metar/data/
 
Forecast for: LTAC (ANKARA/ESENBOGA , TR)
Text: TAF LTAC 131640Z 1318/1418 VRB02KT CAVOK
Forecast period: 1800 UTC 13 November 2019 to 0000 UTC 14 November 2019
Forecast type: FROM: standard forecast or significant change
Winds: variable direction winds at 2 MPH (2 knots; 1.0 m/s)
Visibility: 6 or more miles 10+ km)
Ceiling: unknown
Clouds: missing
Weather: NSW  (no significant weather)
Text: BECMG 1400/1403 SCT040 BKN100
Forecast period: 0000 to 1800 UTC 14 November 2019
Forecast type: BECOMING: Conditions expected to become as follows by 0300 UTC 14 November 2019
Winds: variable direction winds at 2 MPH (2 knots; 1.0 m/s)
Visibility: 6 or more miles 10+ km)
Ceiling: 10000 feet AGL
Clouds: scattered clouds at 4000 feet AGL
broken clouds at 10000 feet AGL
Weather: NSW  (no significant weather)